Hlavní strana
METAR-TAF:

METAR-TAF

Letiště :

Tulcea, Rumunsko

zeměpisná šířka: 45-11N, zeměpisná délka: 028-49E, výška: 4 m

Aktuální stav počasí

Zpráva byla vytvořena před 21 minutami, v 00:30 UTC
Západoseverozápadní vítr 8 kt
Teplota 6°C
Vlhkost vzduchu 70%
Tlak 1023 hPa
Viditelnost 10 km a více

METAR: LRTC 090030Z AUTO 30008KT 9999 FEW080/// 06/01 Q1023

Čas: 03:51 (00:51 UTC)

Předpověď počasí

Zpráva byla vytvořena před 10 hodinami a 51 minutami, v 14:00 UTC
Předpověď platná od 08 v 15 UTC do 09 v 00 UTC
Severní vítr 12 kt
Viditelnost 10 km a více
Žádná oblačnost pod 1500 m, nevyskytují se cumulonimby.

TAF: LRTC 081400Z 0815/0900 35012KT CAVOK

Stav a předpovědi počasí z více než 4 000 letišť (zprávy METAR a TAF).

Červené a žluté tečky na mapě představují dostupné meteorologické stanice.

Když kurzor umístíte na tečku, zobrazí se název stanice.

Pak kliknutím zobrazíte stav a předpověď počasí.

Chcete-li změnit mapu, kliknutím na zelené tlačítko se znaménkem +mapu přiblížíte, kliknutím na zelené tlačítko se znaménkem – mapu oddálíte a kliknutím na zelené šipky přejdete na sousední mapy.


METAR-TAF: